sensor_id;sensor_type;location;lat;lon;timestamp;temperature;humidity
24262;DHT22;12385;51.412;5.540;2024-01-15T00:01:12;1.60;99.90
24262;DHT22;12385;51.412;5.540;2024-01-15T00:03:37;1.60;99.90
24262;DHT22;12385;51.412;5.540;2024-01-15T00:06:03;1.60;99.90
24262;DHT22;12385;51.412;5.540;2024-01-15T00:08:29;1.50;99.90
24262;DHT22;12385;51.412;5.540;2024-01-15T00:10:55;1.60;99.90
24262;DHT22;12385;51.412;5.540;2024-01-15T00:13:20;1.60;99.90
24262;DHT22;12385;51.412;5.540;2024-01-15T00:15:46;1.60;99.90
24262;DHT22;12385;51.412;5.540;2024-01-15T00:18:12;1.60;99.90
24262;DHT22;12385;51.412;5.540;2024-01-15T00:20:38;1.60;99.90
24262;DHT22;12385;51.412;5.540;2024-01-15T00:23:03;1.60;99.90
24262;DHT22;12385;51.412;5.540;2024-01-15T00:25:29;1.70;99.90
24262;DHT22;12385;51.412;5.540;2024-01-15T00:27:55;1.60;99.90
24262;DHT22;12385;51.412;5.540;2024-01-15T00:30:20;1.60;99.90
24262;DHT22;12385;51.412;5.540;2024-01-15T00:32:47;1.60;99.90
24262;DHT22;12385;51.412;5.540;2024-01-15T00:35:12;1.60;99.90
24262;DHT22;12385;51.412;5.540;2024-01-15T00:37:38;1.60;99.90
24262;DHT22;12385;51.412;5.540;2024-01-15T00:40:05;1.60;99.90
24262;DHT22;12385;51.412;5.540;2024-01-15T00:42:33;1.60;99.90
24262;DHT22;12385;51.412;5.540;2024-01-15T00:45:02;1.60;99.90
24262;DHT22;12385;51.412;5.540;2024-01-15T00:47:28;1.60;99.90
24262;DHT22;12385;51.412;5.540;2024-01-15T00:49:54;1.60;99.90
24262;DHT22;12385;51.412;5.540;2024-01-15T00:52:20;1.60;99.90
24262;DHT22;12385;51.412;5.540;2024-01-15T00:54:46;1.60;99.90
24262;DHT22;12385;51.412;5.540;2024-01-15T00:57:12;1.60;99.90
24262;DHT22;12385;51.412;5.540;2024-01-15T00:59:38;1.60;99.90
24262;DHT22;12385;51.412;5.540;2024-01-15T01:02:03;1.60;99.90
24262;DHT22;12385;51.412;5.540;2024-01-15T01:04:29;1.60;99.90
24262;DHT22;12385;51.412;5.540;2024-01-15T01:06:55;1.60;99.90
24262;DHT22;12385;51.412;5.540;2024-01-15T01:09:21;1.70;99.90
24262;DHT22;12385;51.412;5.540;2024-01-15T01:11:46;1.70;99.90
24262;DHT22;12385;51.412;5.540;2024-01-15T01:14:12;1.70;99.90
24262;DHT22;12385;51.412;5.540;2024-01-15T01:16:37;1.70;99.90
24262;DHT22;12385;51.412;5.540;2024-01-15T01:19:05;1.70;99.90
24262;DHT22;12385;51.412;5.540;2024-01-15T01:21:31;1.70;99.90
24262;DHT22;12385;51.412;5.540;2024-01-15T01:23:57;1.70;99.90
24262;DHT22;12385;51.412;5.540;2024-01-15T01:26:23;1.70;99.90
24262;DHT22;12385;51.412;5.540;2024-01-15T01:28:48;1.70;99.90
24262;DHT22;12385;51.412;5.540;2024-01-15T01:31:16;1.80;99.90
24262;DHT22;12385;51.412;5.540;2024-01-15T01:33:42;1.80;99.90
24262;DHT22;12385;51.412;5.540;2024-01-15T01:36:10;1.80;99.90
24262;DHT22;12385;51.412;5.540;2024-01-15T01:38:37;1.80;99.90
24262;DHT22;12385;51.412;5.540;2024-01-15T01:41:03;1.80;99.90
24262;DHT22;12385;51.412;5.540;2024-01-15T01:43:28;1.80;99.90
24262;DHT22;12385;51.412;5.540;2024-01-15T01:45:56;1.80;99.90
24262;DHT22;12385;51.412;5.540;2024-01-15T01:48:24;1.80;99.90
24262;DHT22;12385;51.412;5.540;2024-01-15T01:50:54;1.80;99.90
24262;DHT22;12385;51.412;5.540;2024-01-15T01:53:20;1.80;99.90
24262;DHT22;12385;51.412;5.540;2024-01-15T01:55:48;1.80;99.90
24262;DHT22;12385;51.412;5.540;2024-01-15T01:58:16;1.80;99.90
24262;DHT22;12385;51.412;5.540;2024-01-15T02:00:42;1.80;99.90
24262;DHT22;12385;51.412;5.540;2024-01-15T02:03:08;1.80;99.90
24262;DHT22;12385;51.412;5.540;2024-01-15T02:05:35;1.70;99.90
24262;DHT22;12385;51.412;5.540;2024-01-15T02:08:00;1.80;99.90
24262;DHT22;12385;51.412;5.540;2024-01-15T02:10:26;1.70;99.90
24262;DHT22;12385;51.412;5.540;2024-01-15T02:12:52;1.70;99.90
24262;DHT22;12385;51.412;5.540;2024-01-15T02:15:18;1.70;99.90
24262;DHT22;12385;51.412;5.540;2024-01-15T02:17:58;1.70;99.90
24262;DHT22;12385;51.412;5.540;2024-01-15T02:20:24;1.70;99.90
24262;DHT22;12385;51.412;5.540;2024-01-15T02:22:51;1.60;99.90
24262;DHT22;12385;51.412;5.540;2024-01-15T02:25:16;1.60;99.90
24262;DHT22;12385;51.412;5.540;2024-01-15T02:27:43;1.60;99.90
24262;DHT22;12385;51.412;5.540;2024-01-15T02:30:12;1.50;99.90
24262;DHT22;12385;51.412;5.540;2024-01-15T02:32:38;1.50;99.90
24262;DHT22;12385;51.412;5.540;2024-01-15T02:35:04;1.50;99.90
24262;DHT22;12385;51.412;5.540;2024-01-15T02:37:30;1.60;99.90
24262;DHT22;12385;51.412;5.540;2024-01-15T02:39:56;1.60;99.90
24262;DHT22;12385;51.412;5.540;2024-01-15T02:42:21;1.60;99.90
24262;DHT22;12385;51.412;5.540;2024-01-15T02:44:47;1.50;99.90
24262;DHT22;12385;51.412;5.540;2024-01-15T02:47:16;1.50;99.90
24262;DHT22;12385;51.412;5.540;2024-01-15T02:49:42;1.50;99.90
24262;DHT22;12385;51.412;5.540;2024-01-15T02:52:07;1.50;99.90
24262;DHT22;12385;51.412;5.540;2024-01-15T02:54:33;1.50;99.90
24262;DHT22;12385;51.412;5.540;2024-01-15T02:56:59;1.40;99.90
24262;DHT22;12385;51.412;5.540;2024-01-15T02:59:25;1.40;99.90
24262;DHT22;12385;51.412;5.540;2024-01-15T03:01:50;1.40;99.90
24262;DHT22;12385;51.412;5.540;2024-01-15T03:04:18;1.40;99.90
24262;DHT22;12385;51.412;5.540;2024-01-15T03:06:47;1.40;99.90
24262;DHT22;12385;51.412;5.540;2024-01-15T03:09:13;1.40;99.90
24262;DHT22;12385;51.412;5.540;2024-01-15T03:11:39;1.40;99.90
24262;DHT22;12385;51.412;5.540;2024-01-15T03:14:05;1.30;99.90
24262;DHT22;12385;51.412;5.540;2024-01-15T03:16:30;1.30;99.90
24262;DHT22;12385;51.412;5.540;2024-01-15T03:18:56;1.40;99.90
24262;DHT22;12385;51.412;5.540;2024-01-15T03:21:22;1.40;99.90
24262;DHT22;12385;51.412;5.540;2024-01-15T03:23:48;1.50;99.90
24262;DHT22;12385;51.412;5.540;2024-01-15T03:26:18;1.50;99.90
24262;DHT22;12385;51.412;5.540;2024-01-15T03:28:47;1.50;99.90
24262;DHT22;12385;51.412;5.540;2024-01-15T03:31:13;1.60;99.90
24262;DHT22;12385;51.412;5.540;2024-01-15T03:33:39;1.60;99.90
24262;DHT22;12385;51.412;5.540;2024-01-15T03:36:08;1.60;99.90
24262;DHT22;12385;51.412;5.540;2024-01-15T03:38:33;1.60;99.90
24262;DHT22;12385;51.412;5.540;2024-01-15T03:41:00;1.60;99.90
24262;DHT22;12385;51.412;5.540;2024-01-15T03:43:27;1.60;99.90
24262;DHT22;12385;51.412;5.540;2024-01-15T03:45:53;1.60;99.90
24262;DHT22;12385;51.412;5.540;2024-01-15T03:48:18;1.60;99.90
24262;DHT22;12385;51.412;5.540;2024-01-15T03:50:45;1.60;99.90
24262;DHT22;12385;51.412;5.540;2024-01-15T03:53:11;1.60;99.90
24262;DHT22;12385;51.412;5.540;2024-01-15T03:55:37;1.50;99.90
24262;DHT22;12385;51.412;5.540;2024-01-15T03:58:03;1.60;99.90
24262;DHT22;12385;51.412;5.540;2024-01-15T04:00:30;1.60;99.90
24262;DHT22;12385;51.412;5.540;2024-01-15T04:02:56;1.60;99.90
24262;DHT22;12385;51.412;5.540;2024-01-15T04:05:21;1.60;99.90
24262;DHT22;12385;51.412;5.540;2024-01-15T04:07:47;1.70;99.90
24262;DHT22;12385;51.412;5.540;2024-01-15T04:10:13;1.70;99.90
24262;DHT22;12385;51.412;5.540;2024-01-15T04:12:38;1.70;99.90
24262;DHT22;12385;51.412;5.540;2024-01-15T04:15:04;1.70;99.90
24262;DHT22;12385;51.412;5.540;2024-01-15T04:17:30;1.70;99.90
24262;DHT22;12385;51.412;5.540;2024-01-15T04:19:55;1.60;99.90
24262;DHT22;12385;51.412;5.540;2024-01-15T04:22:21;1.70;99.90
24262;DHT22;12385;51.412;5.540;2024-01-15T04:24:47;1.70;99.90
24262;DHT22;12385;51.412;5.540;2024-01-15T04:27:12;1.70;99.90
24262;DHT22;12385;51.412;5.540;2024-01-15T04:29:38;1.70;99.90
24262;DHT22;12385;51.412;5.540;2024-01-15T04:32:05;1.80;99.90
24262;DHT22;12385;51.412;5.540;2024-01-15T04:34:31;1.80;99.90
24262;DHT22;12385;51.412;5.540;2024-01-15T04:36:57;1.80;99.90
24262;DHT22;12385;51.412;5.540;2024-01-15T04:39:23;1.80;99.90
24262;DHT22;12385;51.412;5.540;2024-01-15T04:41:49;1.80;99.90
24262;DHT22;12385;51.412;5.540;2024-01-15T04:44:18;1.70;99.90
24262;DHT22;12385;51.412;5.540;2024-01-15T04:46:43;1.80;99.90
24262;DHT22;12385;51.412;5.540;2024-01-15T04:49:09;1.70;99.90
24262;DHT22;12385;51.412;5.540;2024-01-15T04:51:35;1.70;99.90
24262;DHT22;12385;51.412;5.540;2024-01-15T04:54:01;1.70;99.90
24262;DHT22;12385;51.412;5.540;2024-01-15T04:56:26;1.70;99.90
24262;DHT22;12385;51.412;5.540;2024-01-15T04:58:52;1.70;99.90
24262;DHT22;12385;51.412;5.540;2024-01-15T05:01:18;1.70;99.90
24262;DHT22;12385;51.412;5.540;2024-01-15T05:03:43;1.70;99.90
24262;DHT22;12385;51.412;5.540;2024-01-15T05:06:11;1.80;99.90
24262;DHT22;12385;51.412;5.540;2024-01-15T05:08:36;1.80;99.90
24262;DHT22;12385;51.412;5.540;2024-01-15T05:11:02;1.80;99.90
24262;DHT22;12385;51.412;5.540;2024-01-15T05:13:27;1.80;99.90
24262;DHT22;12385;51.412;5.540;2024-01-15T05:15:53;1.80;99.90
24262;DHT22;12385;51.412;5.540;2024-01-15T05:18:19;1.70;99.90
24262;DHT22;12385;51.412;5.540;2024-01-15T05:20:48;1.80;99.90
24262;DHT22;12385;51.412;5.540;2024-01-15T05:23:13;1.80;99.90
24262;DHT22;12385;51.412;5.540;2024-01-15T05:25:40;1.80;99.90
24262;DHT22;12385;51.412;5.540;2024-01-15T05:28:06;1.80;99.90
24262;DHT22;12385;51.412;5.540;2024-01-15T05:30:32;1.80;99.90
24262;DHT22;12385;51.412;5.540;2024-01-15T05:32:57;1.80;99.90
24262;DHT22;12385;51.412;5.540;2024-01-15T05:35:25;1.80;99.90
24262;DHT22;12385;51.412;5.540;2024-01-15T05:37:51;1.80;99.90
24262;DHT22;12385;51.412;5.540;2024-01-15T05:40:17;1.80;99.90
24262;DHT22;12385;51.412;5.540;2024-01-15T05:42:42;1.80;99.90
24262;DHT22;12385;51.412;5.540;2024-01-15T05:45:08;1.70;99.90
24262;DHT22;12385;51.412;5.540;2024-01-15T05:47:34;1.70;99.90
24262;DHT22;12385;51.412;5.540;2024-01-15T05:50:00;1.70;99.90
24262;DHT22;12385;51.412;5.540;2024-01-15T05:52:26;1.70;99.90
24262;DHT22;12385;51.412;5.540;2024-01-15T05:54:52;1.70;99.90
24262;DHT22;12385;51.412;5.540;2024-01-15T05:57:18;1.70;99.90
24262;DHT22;12385;51.412;5.540;2024-01-15T05:59:46;1.70;99.90
24262;DHT22;12385;51.412;5.540;2024-01-15T06:02:12;1.70;99.90
24262;DHT22;12385;51.412;5.540;2024-01-15T06:04:38;1.70;99.90
24262;DHT22;12385;51.412;5.540;2024-01-15T06:07:04;1.80;99.90
24262;DHT22;12385;51.412;5.540;2024-01-15T06:09:29;1.80;99.90
24262;DHT22;12385;51.412;5.540;2024-01-15T06:11:56;1.80;99.90
24262;DHT22;12385;51.412;5.540;2024-01-15T06:14:22;1.80;99.90
24262;DHT22;12385;51.412;5.540;2024-01-15T06:16:48;1.80;99.90
24262;DHT22;12385;51.412;5.540;2024-01-15T06:19:16;1.80;99.90
24262;DHT22;12385;51.412;5.540;2024-01-15T06:21:42;1.80;99.90
24262;DHT22;12385;51.412;5.540;2024-01-15T06:24:08;1.80;99.90
24262;DHT22;12385;51.412;5.540;2024-01-15T06:26:35;1.80;99.90
24262;DHT22;12385;51.412;5.540;2024-01-15T06:29:01;1.80;99.90
24262;DHT22;12385;51.412;5.540;2024-01-15T06:31:28;1.80;99.90
24262;DHT22;12385;51.412;5.540;2024-01-15T06:33:54;1.80;99.90
24262;DHT22;12385;51.412;5.540;2024-01-15T06:36:23;1.80;99.90
24262;DHT22;12385;51.412;5.540;2024-01-15T06:38:49;1.80;99.90
24262;DHT22;12385;51.412;5.540;2024-01-15T06:41:17;1.90;99.90
24262;DHT22;12385;51.412;5.540;2024-01-15T06:43:43;1.90;99.90
24262;DHT22;12385;51.412;5.540;2024-01-15T06:46:09;1.80;99.90
24262;DHT22;12385;51.412;5.540;2024-01-15T06:48:34;1.80;99.90
24262;DHT22;12385;51.412;5.540;2024-01-15T06:51:00;1.70;99.90
24262;DHT22;12385;51.412;5.540;2024-01-15T06:53:26;1.70;99.90
24262;DHT22;12385;51.412;5.540;2024-01-15T06:55:52;1.70;99.90
24262;DHT22;12385;51.412;5.540;2024-01-15T06:58:17;1.60;99.90
24262;DHT22;12385;51.412;5.540;2024-01-15T07:00:43;1.60;99.90
24262;DHT22;12385;51.412;5.540;2024-01-15T07:03:08;1.60;99.90
24262;DHT22;12385;51.412;5.540;2024-01-15T07:05:34;1.60;99.90
24262;DHT22;12385;51.412;5.540;2024-01-15T07:08:00;1.60;99.90
24262;DHT22;12385;51.412;5.540;2024-01-15T07:10:25;1.60;99.90
24262;DHT22;12385;51.412;5.540;2024-01-15T07:12:51;1.60;99.90
24262;DHT22;12385;51.412;5.540;2024-01-15T07:15:17;1.60;99.90
24262;DHT22;12385;51.412;5.540;2024-01-15T07:17:42;1.60;99.90
24262;DHT22;12385;51.412;5.540;2024-01-15T07:20:09;1.60;99.90
24262;DHT22;12385;51.412;5.540;2024-01-15T07:22:35;1.60;99.90
24262;DHT22;12385;51.412;5.540;2024-01-15T07:25:02;1.60;99.90
24262;DHT22;12385;51.412;5.540;2024-01-15T07:27:31;1.60;99.90
24262;DHT22;12385;51.412;5.540;2024-01-15T07:29:57;1.70;99.90
24262;DHT22;12385;51.412;5.540;2024-01-15T07:32:23;1.60;99.90
24262;DHT22;12385;51.412;5.540;2024-01-15T07:34:49;1.60;99.90
24262;DHT22;12385;51.412;5.540;2024-01-15T07:37:18;1.60;99.90
24262;DHT22;12385;51.412;5.540;2024-01-15T07:39:52;1.60;99.90
24262;DHT22;12385;51.412;5.540;2024-01-15T07:42:17;1.60;99.90
24262;DHT22;12385;51.412;5.540;2024-01-15T07:44:43;1.60;99.90
24262;DHT22;12385;51.412;5.540;2024-01-15T07:47:11;1.60;99.90
24262;DHT22;12385;51.412;5.540;2024-01-15T07:49:37;1.50;99.90
24262;DHT22;12385;51.412;5.540;2024-01-15T07:52:03;1.50;99.90
24262;DHT22;12385;51.412;5.540;2024-01-15T07:54:31;1.50;99.90
24262;DHT22;12385;51.412;5.540;2024-01-15T07:56:58;1.60;99.90
24262;DHT22;12385;51.412;5.540;2024-01-15T07:59:24;1.60;99.90
24262;DHT22;12385;51.412;5.540;2024-01-15T08:01:51;1.60;99.90
24262;DHT22;12385;51.412;5.540;2024-01-15T08:04:17;1.60;99.90
24262;DHT22;12385;51.412;5.540;2024-01-15T08:06:43;1.60;99.90
24262;DHT22;12385;51.412;5.540;2024-01-15T08:09:08;1.60;99.90
24262;DHT22;12385;51.412;5.540;2024-01-15T08:11:35;1.60;99.90
24262;DHT22;12385;51.412;5.540;2024-01-15T08:14:01;1.60;99.90
24262;DHT22;12385;51.412;5.540;2024-01-15T08:16:27;1.60;99.90
24262;DHT22;12385;51.412;5.540;2024-01-15T08:18:53;1.60;99.90
24262;DHT22;12385;51.412;5.540;2024-01-15T08:21:19;1.70;99.90
24262;DHT22;12385;51.412;5.540;2024-01-15T08:23:47;1.60;99.90
24262;DHT22;12385;51.412;5.540;2024-01-15T08:26:13;1.70;99.90
24262;DHT22;12385;51.412;5.540;2024-01-15T08:28:38;1.60;99.90
24262;DHT22;12385;51.412;5.540;2024-01-15T08:31:04;1.60;99.90
24262;DHT22;12385;51.412;5.540;2024-01-15T08:33:29;1.70;99.90
24262;DHT22;12385;51.412;5.540;2024-01-15T08:35:55;1.70;99.90
24262;DHT22;12385;51.412;5.540;2024-01-15T08:38:21;1.70;99.90
24262;DHT22;12385;51.412;5.540;2024-01-15T08:40:47;1.70;99.90
24262;DHT22;12385;51.412;5.540;2024-01-15T08:43:14;1.70;99.90
24262;DHT22;12385;51.412;5.540;2024-01-15T08:45:39;1.70;99.90
24262;DHT22;12385;51.412;5.540;2024-01-15T08:48:05;1.70;99.90
24262;DHT22;12385;51.412;5.540;2024-01-15T08:50:32;1.70;99.90
24262;DHT22;12385;51.412;5.540;2024-01-15T08:52:58;1.70;99.90
24262;DHT22;12385;51.412;5.540;2024-01-15T08:55:23;1.70;99.90
24262;DHT22;12385;51.412;5.540;2024-01-15T08:57:50;1.70;99.90
24262;DHT22;12385;51.412;5.540;2024-01-15T09:00:17;1.70;99.90
24262;DHT22;12385;51.412;5.540;2024-01-15T09:02:43;1.60;99.90
24262;DHT22;12385;51.412;5.540;2024-01-15T09:05:09;1.60;99.90
24262;DHT22;12385;51.412;5.540;2024-01-15T09:07:34;1.60;99.90
24262;DHT22;12385;51.412;5.540;2024-01-15T09:10:00;1.60;99.90
24262;DHT22;12385;51.412;5.540;2024-01-15T09:12:27;1.60;99.90
24262;DHT22;12385;51.412;5.540;2024-01-15T09:14:53;1.60;99.90
24262;DHT22;12385;51.412;5.540;2024-01-15T09:17:22;1.60;99.90
24262;DHT22;12385;51.412;5.540;2024-01-15T09:19:51;1.60;99.90
24262;DHT22;12385;51.412;5.540;2024-01-15T09:22:17;1.70;99.90
24262;DHT22;12385;51.412;5.540;2024-01-15T09:24:46;1.70;99.90
24262;DHT22;12385;51.412;5.540;2024-01-15T09:27:13;1.70;99.90
24262;DHT22;12385;51.412;5.540;2024-01-15T09:29:38;1.70;99.90
24262;DHT22;12385;51.412;5.540;2024-01-15T09:32:07;1.70;99.90
24262;DHT22;12385;51.412;5.540;2024-01-15T09:34:34;1.70;99.90
24262;DHT22;12385;51.412;5.540;2024-01-15T09:36:59;1.70;99.90
24262;DHT22;12385;51.412;5.540;2024-01-15T09:39:26;1.70;99.90
24262;DHT22;12385;51.412;5.540;2024-01-15T09:41:53;1.70;99.90
24262;DHT22;12385;51.412;5.540;2024-01-15T09:44:20;1.70;99.90
24262;DHT22;12385;51.412;5.540;2024-01-15T09:46:47;1.70;99.90
24262;DHT22;12385;51.412;5.540;2024-01-15T09:49:18;1.70;99.90
24262;DHT22;12385;51.412;5.540;2024-01-15T09:51:47;1.70;99.90
24262;DHT22;12385;51.412;5.540;2024-01-15T09:54:13;1.70;99.90
24262;DHT22;12385;51.412;5.540;2024-01-15T09:56:48;1.70;99.90
24262;DHT22;12385;51.412;5.540;2024-01-15T09:59:18;1.70;99.90
24262;DHT22;12385;51.412;5.540;2024-01-15T10:01:46;1.80;99.90
24262;DHT22;12385;51.412;5.540;2024-01-15T10:04:17;1.90;99.90
24262;DHT22;12385;51.412;5.540;2024-01-15T10:06:46;1.90;99.90
24262;DHT22;12385;51.412;5.540;2024-01-15T10:09:13;2.00;99.90
24262;DHT22;12385;51.412;5.540;2024-01-15T10:11:42;2.00;99.90
24262;DHT22;12385;51.412;5.540;2024-01-15T10:14:09;2.00;99.90
24262;DHT22;12385;51.412;5.540;2024-01-15T10:16:40;1.90;99.90
24262;DHT22;12385;51.412;5.540;2024-01-15T10:19:06;1.90;99.90
24262;DHT22;12385;51.412;5.540;2024-01-15T10:21:33;1.80;99.90
24262;DHT22;12385;51.412;5.540;2024-01-15T10:24:01;1.80;99.90
24262;DHT22;12385;51.412;5.540;2024-01-15T10:26:31;1.80;99.90
24262;DHT22;12385;51.412;5.540;2024-01-15T10:29:00;1.80;99.90
24262;DHT22;12385;51.412;5.540;2024-01-15T10:31:26;1.80;99.90
24262;DHT22;12385;51.412;5.540;2024-01-15T10:33:53;1.90;99.90
24262;DHT22;12385;51.412;5.540;2024-01-15T10:36:18;2.00;99.90
24262;DHT22;12385;51.412;5.540;2024-01-15T10:38:47;2.00;99.90
24262;DHT22;12385;51.412;5.540;2024-01-15T10:41:18;2.10;99.90
24262;DHT22;12385;51.412;5.540;2024-01-15T10:43:47;2.20;99.90
24262;DHT22;12385;51.412;5.540;2024-01-15T10:46:13;2.20;99.90
24262;DHT22;12385;51.412;5.540;2024-01-15T10:48:39;2.20;99.90
24262;DHT22;12385;51.412;5.540;2024-01-15T10:51:05;2.20;99.90
24262;DHT22;12385;51.412;5.540;2024-01-15T10:53:38;2.20;99.90
24262;DHT22;12385;51.412;5.540;2024-01-15T10:56:05;2.30;99.90
24262;DHT22;12385;51.412;5.540;2024-01-15T10:58:31;2.40;99.90
24262;DHT22;12385;51.412;5.540;2024-01-15T11:00:59;2.40;99.90
24262;DHT22;12385;51.412;5.540;2024-01-15T11:03:25;2.50;99.90
24262;DHT22;12385;51.412;5.540;2024-01-15T11:05:50;2.50;99.90
24262;DHT22;12385;51.412;5.540;2024-01-15T11:08:18;2.50;99.90
24262;DHT22;12385;51.412;5.540;2024-01-15T11:10:50;2.50;99.90
24262;DHT22;12385;51.412;5.540;2024-01-15T11:16:06;2.50;99.90
24262;DHT22;12385;51.412;5.540;2024-01-15T11:18:36;2.40;99.90
24262;DHT22;12385;51.412;5.540;2024-01-15T11:21:19;2.40;99.90
24262;DHT22;12385;51.412;5.540;2024-01-15T11:23:50;2.30;99.90
24262;DHT22;12385;51.412;5.540;2024-01-15T11:26:36;2.30;99.90
24262;DHT22;12385;51.412;5.540;2024-01-15T11:29:06;2.20;99.90
24262;DHT22;12385;51.412;5.540;2024-01-15T11:34:05;2.30;99.90
24262;DHT22;12385;51.412;5.540;2024-01-15T11:37:00;2.50;99.90
24262;DHT22;12385;51.412;5.540;2024-01-15T11:41:57;2.80;99.90
24262;DHT22;12385;51.412;5.540;2024-01-15T11:44:23;2.90;99.90
24262;DHT22;12385;51.412;5.540;2024-01-15T11:47:03;2.90;99.90
24262;DHT22;12385;51.412;5.540;2024-01-15T11:52:19;2.60;99.90
24262;DHT22;12385;51.412;5.540;2024-01-15T12:00:05;2.20;99.90
24262;DHT22;12385;51.412;5.540;2024-01-15T12:02:32;2.20;99.90
24262;DHT22;12385;51.412;5.540;2024-01-15T12:04:58;2.20;99.90
24262;DHT22;12385;51.412;5.540;2024-01-15T12:07:24;2.20;99.90
24262;DHT22;12385;51.412;5.540;2024-01-15T12:09:49;2.20;99.90
24262;DHT22;12385;51.412;5.540;2024-01-15T12:12:27;2.20;99.90
24262;DHT22;12385;51.412;5.540;2024-01-15T12:14:54;2.20;99.90
24262;DHT22;12385;51.412;5.540;2024-01-15T12:17:19;2.30;99.90
24262;DHT22;12385;51.412;5.540;2024-01-15T12:19:46;2.30;99.90
24262;DHT22;12385;51.412;5.540;2024-01-15T12:22:12;2.30;99.90
24262;DHT22;12385;51.412;5.540;2024-01-15T12:24:37;2.30;99.90
24262;DHT22;12385;51.412;5.540;2024-01-15T12:27:04;2.40;99.90
24262;DHT22;12385;51.412;5.540;2024-01-15T12:29:31;2.40;99.90
24262;DHT22;12385;51.412;5.540;2024-01-15T12:31:57;2.40;99.90
24262;DHT22;12385;51.412;5.540;2024-01-15T12:34:23;2.40;99.90
24262;DHT22;12385;51.412;5.540;2024-01-15T12:36:48;2.40;99.90
24262;DHT22;12385;51.412;5.540;2024-01-15T12:39:16;2.50;99.90
24262;DHT22;12385;51.412;5.540;2024-01-15T12:41:42;2.50;99.90
24262;DHT22;12385;51.412;5.540;2024-01-15T12:44:08;2.50;99.90
24262;DHT22;12385;51.412;5.540;2024-01-15T12:46:34;2.50;99.90
24262;DHT22;12385;51.412;5.540;2024-01-15T12:49:00;2.50;99.90
24262;DHT22;12385;51.412;5.540;2024-01-15T12:51:26;2.50;99.90
24262;DHT22;12385;51.412;5.540;2024-01-15T12:53:53;2.50;99.90
24262;DHT22;12385;51.412;5.540;2024-01-15T12:56:18;2.50;99.90
24262;DHT22;12385;51.412;5.540;2024-01-15T12:58:46;2.50;99.90
24262;DHT22;12385;51.412;5.540;2024-01-15T13:01:15;2.50;99.90
24262;DHT22;12385;51.412;5.540;2024-01-15T13:03:42;2.50;99.90
24262;DHT22;12385;51.412;5.540;2024-01-15T13:06:08;2.50;99.90
24262;DHT22;12385;51.412;5.540;2024-01-15T13:08:34;2.50;99.90
24262;DHT22;12385;51.412;5.540;2024-01-15T13:11:00;2.60;99.90
24262;DHT22;12385;51.412;5.540;2024-01-15T13:13:25;2.60;99.90
24262;DHT22;12385;51.412;5.540;2024-01-15T13:15:51;2.60;99.90
24262;DHT22;12385;51.412;5.540;2024-01-15T13:18:17;2.60;99.90
24262;DHT22;12385;51.412;5.540;2024-01-15T13:20:42;2.50;99.90
24262;DHT22;12385;51.412;5.540;2024-01-15T13:23:08;2.40;99.90
24262;DHT22;12385;51.412;5.540;2024-01-15T13:25:35;2.30;99.90
24262;DHT22;12385;51.412;5.540;2024-01-15T13:28:04;2.20;99.90
24262;DHT22;12385;51.412;5.540;2024-01-15T13:30:30;2.10;99.90
24262;DHT22;12385;51.412;5.540;2024-01-15T13:32:57;2.00;99.90
24262;DHT22;12385;51.412;5.540;2024-01-15T13:35:23;2.00;99.90
24262;DHT22;12385;51.412;5.540;2024-01-15T13:37:49;1.90;99.90
24262;DHT22;12385;51.412;5.540;2024-01-15T13:40:16;2.00;99.90
24262;DHT22;12385;51.412;5.540;2024-01-15T13:42:46;2.00;99.90
24262;DHT22;12385;51.412;5.540;2024-01-15T13:45:16;2.00;99.90
24262;DHT22;12385;51.412;5.540;2024-01-15T13:47:42;2.00;99.90
24262;DHT22;12385;51.412;5.540;2024-01-15T13:50:10;2.00;99.90
24262;DHT22;12385;51.412;5.540;2024-01-15T13:52:35;2.00;99.90
24262;DHT22;12385;51.412;5.540;2024-01-15T13:55:01;2.00;99.90
24262;DHT22;12385;51.412;5.540;2024-01-15T13:57:27;2.00;99.90
24262;DHT22;12385;51.412;5.540;2024-01-15T13:59:53;2.00;99.90
24262;DHT22;12385;51.412;5.540;2024-01-15T14:02:18;2.00;99.90
24262;DHT22;12385;51.412;5.540;2024-01-15T14:04:47;2.10;99.90
24262;DHT22;12385;51.412;5.540;2024-01-15T14:07:12;2.10;99.90
24262;DHT22;12385;51.412;5.540;2024-01-15T14:09:38;2.10;99.90
24262;DHT22;12385;51.412;5.540;2024-01-15T14:12:04;2.10;99.90
24262;DHT22;12385;51.412;5.540;2024-01-15T14:14:31;2.10;99.90
24262;DHT22;12385;51.412;5.540;2024-01-15T14:16:57;2.10;99.90
24262;DHT22;12385;51.412;5.540;2024-01-15T14:19:23;2.10;99.90
24262;DHT22;12385;51.412;5.540;2024-01-15T14:21:48;2.10;99.90
24262;DHT22;12385;51.412;5.540;2024-01-15T14:24:16;2.00;99.90
24262;DHT22;12385;51.412;5.540;2024-01-15T14:26:42;2.00;99.90
24262;DHT22;12385;51.412;5.540;2024-01-15T14:29:09;2.00;99.90
24262;DHT22;12385;51.412;5.540;2024-01-15T14:31:35;2.00;99.90
24262;DHT22;12385;51.412;5.540;2024-01-15T14:34:01;2.10;99.90
24262;DHT22;12385;51.412;5.540;2024-01-15T14:36:28;2.20;99.90
24262;DHT22;12385;51.412;5.540;2024-01-15T14:38:54;2.30;99.90
24262;DHT22;12385;51.412;5.540;2024-01-15T14:41:19;2.30;99.90
24262;DHT22;12385;51.412;5.540;2024-01-15T14:43:46;2.30;99.90
24262;DHT22;12385;51.412;5.540;2024-01-15T14:46:11;2.20;99.90
24262;DHT22;12385;51.412;5.540;2024-01-15T14:48:37;2.30;99.90
24262;DHT22;12385;51.412;5.540;2024-01-15T14:51:03;2.30;99.90
24262;DHT22;12385;51.412;5.540;2024-01-15T14:53:28;2.30;99.90
24262;DHT22;12385;51.412;5.540;2024-01-15T14:55:54;2.30;99.90
24262;DHT22;12385;51.412;5.540;2024-01-15T14:58:20;2.30;99.90
24262;DHT22;12385;51.412;5.540;2024-01-15T15:00:48;2.20;99.90
24262;DHT22;12385;51.412;5.540;2024-01-15T15:03:16;2.20;99.90
24262;DHT22;12385;51.412;5.540;2024-01-15T15:05:44;2.20;99.90
24262;DHT22;12385;51.412;5.540;2024-01-15T15:08:11;2.30;99.90
24262;DHT22;12385;51.412;5.540;2024-01-15T15:10:40;2.30;99.90
24262;DHT22;12385;51.412;5.540;2024-01-15T15:13:08;2.30;99.90
24262;DHT22;12385;51.412;5.540;2024-01-15T15:15:35;2.20;99.90
24262;DHT22;12385;51.412;5.540;2024-01-15T15:18:01;2.20;99.90
24262;DHT22;12385;51.412;5.540;2024-01-15T15:20:26;2.20;99.90
24262;DHT22;12385;51.412;5.540;2024-01-15T15:22:52;2.20;99.90
24262;DHT22;12385;51.412;5.540;2024-01-15T15:25:21;2.20;99.90
24262;DHT22;12385;51.412;5.540;2024-01-15T15:27:48;2.20;99.90
24262;DHT22;12385;51.412;5.540;2024-01-15T15:30:17;2.10;99.90
24262;DHT22;12385;51.412;5.540;2024-01-15T15:32:42;2.10;99.90
24262;DHT22;12385;51.412;5.540;2024-01-15T15:35:08;2.10;99.90
24262;DHT22;12385;51.412;5.540;2024-01-15T15:37:34;2.00;99.90
24262;DHT22;12385;51.412;5.540;2024-01-15T15:40:00;2.00;99.90
24262;DHT22;12385;51.412;5.540;2024-01-15T15:42:26;1.90;99.90
24262;DHT22;12385;51.412;5.540;2024-01-15T15:44:51;1.90;99.90
24262;DHT22;12385;51.412;5.540;2024-01-15T15:47:18;1.80;99.90
24262;DHT22;12385;51.412;5.540;2024-01-15T15:49:46;1.80;99.90
24262;DHT22;12385;51.412;5.540;2024-01-15T15:52:12;1.70;99.90
24262;DHT22;12385;51.412;5.540;2024-01-15T15:54:39;1.70;99.90
24262;DHT22;12385;51.412;5.540;2024-01-15T15:57:04;1.60;99.90